sensor_id;sensor_type;location;lat;lon;timestamp;P1;durP1;ratioP1;P2;durP2;ratioP2
60896;SDS011;46749;32.932;-117.130;2023-03-03T00:00:51;2.75;;;1.15;;
60896;SDS011;46749;32.932;-117.130;2023-03-03T00:03:21;2.67;;;0.85;;
60896;SDS011;46749;32.932;-117.130;2023-03-03T00:05:49;4.97;;;0.90;;
60896;SDS011;46749;32.932;-117.130;2023-03-03T00:08:17;3.60;;;0.60;;
60896;SDS011;46749;32.932;-117.130;2023-03-03T00:10:43;3.25;;;0.70;;
60896;SDS011;46749;32.932;-117.130;2023-03-03T00:13:21;7.60;;;1.05;;
60896;SDS011;46749;32.932;-117.130;2023-03-03T00:15:49;3.53;;;1.00;;
60896;SDS011;46749;32.932;-117.130;2023-03-03T00:18:18;7.50;;;1.30;;
60896;SDS011;46749;32.932;-117.130;2023-03-03T00:20:51;9.93;;;1.08;;
60896;SDS011;46749;32.932;-117.130;2023-03-03T00:25:49;2.92;;;1.15;;
60896;SDS011;46749;32.932;-117.130;2023-03-03T00:28:58;4.55;;;0.80;;
60896;SDS011;46749;32.932;-117.130;2023-03-03T00:31:51;2.72;;;0.52;;
60896;SDS011;46749;32.932;-117.130;2023-03-03T00:34:13;3.38;;;0.70;;
60896;SDS011;46749;32.932;-117.130;2023-03-03T00:36:54;4.47;;;1.08;;
60896;SDS011;46749;32.932;-117.130;2023-03-03T00:42:13;3.92;;;0.60;;
60896;SDS011;46749;32.932;-117.130;2023-03-03T00:44:42;6.03;;;0.77;;
60896;SDS011;46749;32.932;-117.130;2023-03-03T00:52:36;3.78;;;0.98;;
60896;SDS011;46749;32.932;-117.130;2023-03-03T00:55:05;3.85;;;1.30;;
60896;SDS011;46749;32.932;-117.130;2023-03-03T00:57:32;3.63;;;0.82;;
60896;SDS011;46749;32.932;-117.130;2023-03-03T00:59:58;5.88;;;0.82;;
60896;SDS011;46749;32.932;-117.130;2023-03-03T01:02:26;6.88;;;1.17;;
60896;SDS011;46749;32.932;-117.130;2023-03-03T01:04:53;3.25;;;0.77;;
60896;SDS011;46749;32.932;-117.130;2023-03-03T01:07:20;3.72;;;0.80;;
60896;SDS011;46749;32.932;-117.130;2023-03-03T01:09:47;3.78;;;0.80;;
60896;SDS011;46749;32.932;-117.130;2023-03-03T01:12:13;3.45;;;0.82;;
60896;SDS011;46749;32.932;-117.130;2023-03-03T01:14:40;12.43;;;1.70;;
60896;SDS011;46749;32.932;-117.130;2023-03-03T01:17:07;12.90;;;1.23;;
60896;SDS011;46749;32.932;-117.130;2023-03-03T01:19:33;23.98;;;2.40;;
60896;SDS011;46749;32.932;-117.130;2023-03-03T01:22:00;10.05;;;1.50;;
60896;SDS011;46749;32.932;-117.130;2023-03-03T01:24:26;10.68;;;1.20;;
60896;SDS011;46749;32.932;-117.130;2023-03-03T01:26:52;14.02;;;1.25;;
60896;SDS011;46749;32.932;-117.130;2023-03-03T01:29:18;4.93;;;1.00;;
60896;SDS011;46749;32.932;-117.130;2023-03-03T01:31:45;6.70;;;1.58;;
60896;SDS011;46749;32.932;-117.130;2023-03-03T01:34:11;12.13;;;1.17;;
60896;SDS011;46749;32.932;-117.130;2023-03-03T01:36:37;5.28;;;0.75;;
60896;SDS011;46749;32.932;-117.130;2023-03-03T01:39:03;3.45;;;0.90;;
60896;SDS011;46749;32.932;-117.130;2023-03-03T01:41:30;7.03;;;0.90;;
60896;SDS011;46749;32.932;-117.130;2023-03-03T01:43:59;4.45;;;0.68;;
60896;SDS011;46749;32.932;-117.130;2023-03-03T01:46:30;2.50;;;0.70;;
60896;SDS011;46749;32.932;-117.130;2023-03-03T01:49:07;4.38;;;0.88;;
60896;SDS011;46749;32.932;-117.130;2023-03-03T01:51:42;4.68;;;0.80;;
60896;SDS011;46749;32.932;-117.130;2023-03-03T01:54:35;2.80;;;0.70;;
60896;SDS011;46749;32.932;-117.130;2023-03-03T01:57:04;4.10;;;0.75;;
60896;SDS011;46749;32.932;-117.130;2023-03-03T01:59:36;1.98;;;0.50;;
60896;SDS011;46749;32.932;-117.130;2023-03-03T02:02:10;8.93;;;1.00;;
60896;SDS011;46749;32.932;-117.130;2023-03-03T02:04:37;4.95;;;0.95;;
60896;SDS011;46749;32.932;-117.130;2023-03-03T02:07:05;5.65;;;0.90;;
60896;SDS011;46749;32.932;-117.130;2023-03-03T02:09:48;6.07;;;1.13;;
60896;SDS011;46749;32.932;-117.130;2023-03-03T02:12:19;10.57;;;1.15;;
60896;SDS011;46749;32.932;-117.130;2023-03-03T02:14:50;25.73;;;1.15;;
60896;SDS011;46749;32.932;-117.130;2023-03-03T02:17:16;10.25;;;1.73;;
60896;SDS011;46749;32.932;-117.130;2023-03-03T02:22:43;8.27;;;1.20;;
60896;SDS011;46749;32.932;-117.130;2023-03-03T02:25:25;12.68;;;1.35;;
60896;SDS011;46749;32.932;-117.130;2023-03-03T02:27:58;9.10;;;0.98;;
60896;SDS011;46749;32.932;-117.130;2023-03-03T02:30:25;6.95;;;0.93;;
60896;SDS011;46749;32.932;-117.130;2023-03-03T02:32:52;10.73;;;2.03;;
60896;SDS011;46749;32.932;-117.130;2023-03-03T02:35:25;6.07;;;0.80;;
60896;SDS011;46749;32.932;-117.130;2023-03-03T02:37:52;5.00;;;1.10;;
60896;SDS011;46749;32.932;-117.130;2023-03-03T02:40:20;3.47;;;0.90;;
60896;SDS011;46749;32.932;-117.130;2023-03-03T02:42:51;6.00;;;0.90;;
60896;SDS011;46749;32.932;-117.130;2023-03-03T02:45:18;7.75;;;1.05;;
60896;SDS011;46749;32.932;-117.130;2023-03-03T02:47:48;4.65;;;0.98;;
60896;SDS011;46749;32.932;-117.130;2023-03-03T02:50:15;4.00;;;1.08;;
60896;SDS011;46749;32.932;-117.130;2023-03-03T02:52:42;2.20;;;0.82;;
60896;SDS011;46749;32.932;-117.130;2023-03-03T02:55:08;4.65;;;0.80;;
60896;SDS011;46749;32.932;-117.130;2023-03-03T02:57:34;3.55;;;1.00;;
60896;SDS011;46749;32.932;-117.130;2023-03-03T03:00:00;5.53;;;0.90;;
60896;SDS011;46749;32.932;-117.130;2023-03-03T03:02:27;3.70;;;0.70;;
60896;SDS011;46749;32.932;-117.130;2023-03-03T03:04:53;2.88;;;1.00;;
60896;SDS011;46749;32.932;-117.130;2023-03-03T03:07:19;2.42;;;0.85;;
60896;SDS011;46749;32.932;-117.130;2023-03-03T03:09:46;2.47;;;0.80;;
60896;SDS011;46749;32.932;-117.130;2023-03-03T03:12:12;1.73;;;0.98;;
60896;SDS011;46749;32.932;-117.130;2023-03-03T03:14:40;4.45;;;0.90;;
60896;SDS011;46749;32.932;-117.130;2023-03-03T03:17:06;4.35;;;0.60;;
60896;SDS011;46749;32.932;-117.130;2023-03-03T03:19:32;3.03;;;0.80;;
60896;SDS011;46749;32.932;-117.130;2023-03-03T03:21:58;2.60;;;0.77;;
60896;SDS011;46749;32.932;-117.130;2023-03-03T03:24:25;2.90;;;0.60;;
60896;SDS011;46749;32.932;-117.130;2023-03-03T03:26:51;2.35;;;1.20;;
60896;SDS011;46749;32.932;-117.130;2023-03-03T03:29:17;2.47;;;0.85;;
60896;SDS011;46749;32.932;-117.130;2023-03-03T03:31:43;4.53;;;0.77;;
60896;SDS011;46749;32.932;-117.130;2023-03-03T03:34:10;2.33;;;0.77;;
60896;SDS011;46749;32.932;-117.130;2023-03-03T03:36:36;3.60;;;1.02;;
60896;SDS011;46749;32.932;-117.130;2023-03-03T03:39:04;4.63;;;0.95;;
60896;SDS011;46749;32.932;-117.130;2023-03-03T03:41:30;5.60;;;0.95;;
60896;SDS011;46749;32.932;-117.130;2023-03-03T03:43:57;3.63;;;0.90;;
60896;SDS011;46749;32.932;-117.130;2023-03-03T03:46:23;2.85;;;0.70;;
60896;SDS011;46749;32.932;-117.130;2023-03-03T03:48:49;3.53;;;0.70;;
60896;SDS011;46749;32.932;-117.130;2023-03-03T03:51:15;1.38;;;0.60;;
60896;SDS011;46749;32.932;-117.130;2023-03-03T03:53:41;3.53;;;0.75;;
60896;SDS011;46749;32.932;-117.130;2023-03-03T03:56:08;2.53;;;0.75;;
60896;SDS011;46749;32.932;-117.130;2023-03-03T03:58:34;3.42;;;0.70;;
60896;SDS011;46749;32.932;-117.130;2023-03-03T04:01:01;2.33;;;0.90;;
60896;SDS011;46749;32.932;-117.130;2023-03-03T04:03:31;3.30;;;0.55;;
60896;SDS011;46749;32.932;-117.130;2023-03-03T04:05:58;2.60;;;0.80;;
60896;SDS011;46749;32.932;-117.130;2023-03-03T04:08:24;2.50;;;0.57;;
60896;SDS011;46749;32.932;-117.130;2023-03-03T04:10:50;1.40;;;0.65;;
60896;SDS011;46749;32.932;-117.130;2023-03-03T04:13:16;2.80;;;0.82;;
60896;SDS011;46749;32.932;-117.130;2023-03-03T04:15:43;3.30;;;0.70;;
60896;SDS011;46749;32.932;-117.130;2023-03-03T04:18:09;2.00;;;0.75;;
60896;SDS011;46749;32.932;-117.130;2023-03-03T04:20:35;2.88;;;0.77;;
60896;SDS011;46749;32.932;-117.130;2023-03-03T04:23:01;2.40;;;1.17;;
60896;SDS011;46749;32.932;-117.130;2023-03-03T04:25:27;3.22;;;0.65;;
60896;SDS011;46749;32.932;-117.130;2023-03-03T04:27:54;2.35;;;0.63;;
60896;SDS011;46749;32.932;-117.130;2023-03-03T04:30:20;2.30;;;0.70;;
60896;SDS011;46749;32.932;-117.130;2023-03-03T04:32:46;2.38;;;0.90;;
60896;SDS011;46749;32.932;-117.130;2023-03-03T04:35:13;1.48;;;0.70;;
60896;SDS011;46749;32.932;-117.130;2023-03-03T04:37:40;1.73;;;0.50;;
60896;SDS011;46749;32.932;-117.130;2023-03-03T04:40:06;1.00;;;0.45;;
60896;SDS011;46749;32.932;-117.130;2023-03-03T04:42:34;1.73;;;0.60;;
60896;SDS011;46749;32.932;-117.130;2023-03-03T04:45:01;2.78;;;0.82;;
60896;SDS011;46749;32.932;-117.130;2023-03-03T04:47:27;1.85;;;0.70;;
60896;SDS011;46749;32.932;-117.130;2023-03-03T04:49:54;1.88;;;0.60;;
60896;SDS011;46749;32.932;-117.130;2023-03-03T04:52:20;2.47;;;0.80;;
60896;SDS011;46749;32.932;-117.130;2023-03-03T04:54:46;2.90;;;0.75;;
60896;SDS011;46749;32.932;-117.130;2023-03-03T04:57:12;2.67;;;0.82;;
60896;SDS011;46749;32.932;-117.130;2023-03-03T04:59:39;1.98;;;0.55;;
60896;SDS011;46749;32.932;-117.130;2023-03-03T05:02:05;2.38;;;0.80;;
60896;SDS011;46749;32.932;-117.130;2023-03-03T05:04:31;2.60;;;0.82;;
60896;SDS011;46749;32.932;-117.130;2023-03-03T05:06:57;1.88;;;0.55;;
60896;SDS011;46749;32.932;-117.130;2023-03-03T05:09:23;2.40;;;0.70;;
60896;SDS011;46749;32.932;-117.130;2023-03-03T05:11:50;1.80;;;0.70;;
60896;SDS011;46749;32.932;-117.130;2023-03-03T05:14:16;2.38;;;1.15;;
60896;SDS011;46749;32.932;-117.130;2023-03-03T05:16:43;2.03;;;0.70;;
60896;SDS011;46749;32.932;-117.130;2023-03-03T05:19:09;2.72;;;0.55;;
60896;SDS011;46749;32.932;-117.130;2023-03-03T05:21:35;2.72;;;0.60;;
60896;SDS011;46749;32.932;-117.130;2023-03-03T05:24:10;3.22;;;0.57;;
60896;SDS011;46749;32.932;-117.130;2023-03-03T05:26:38;2.72;;;1.10;;
60896;SDS011;46749;32.932;-117.130;2023-03-03T05:29:05;0.75;;;0.60;;
60896;SDS011;46749;32.932;-117.130;2023-03-03T05:31:33;1.20;;;0.73;;
60896;SDS011;46749;32.932;-117.130;2023-03-03T05:33:59;2.65;;;0.57;;
60896;SDS011;46749;32.932;-117.130;2023-03-03T05:36:25;1.35;;;0.70;;
60896;SDS011;46749;32.932;-117.130;2023-03-03T05:38:51;1.45;;;0.80;;
60896;SDS011;46749;32.932;-117.130;2023-03-03T05:41:18;1.25;;;0.82;;
60896;SDS011;46749;32.932;-117.130;2023-03-03T05:43:44;0.70;;;0.57;;
60896;SDS011;46749;32.932;-117.130;2023-03-03T05:46:11;1.80;;;0.70;;
60896;SDS011;46749;32.932;-117.130;2023-03-03T05:48:37;1.75;;;0.70;;
60896;SDS011;46749;32.932;-117.130;2023-03-03T05:51:04;3.83;;;0.98;;
60896;SDS011;46749;32.932;-117.130;2023-03-03T05:53:30;5.43;;;0.98;;
60896;SDS011;46749;32.932;-117.130;2023-03-03T05:55:56;1.75;;;0.65;;
60896;SDS011;46749;32.932;-117.130;2023-03-03T05:58:23;2.25;;;0.70;;
60896;SDS011;46749;32.932;-117.130;2023-03-03T06:00:49;1.20;;;0.60;;
60896;SDS011;46749;32.932;-117.130;2023-03-03T06:03:15;1.92;;;1.00;;
60896;SDS011;46749;32.932;-117.130;2023-03-03T06:05:42;2.95;;;0.98;;
60896;SDS011;46749;32.932;-117.130;2023-03-03T06:08:08;1.42;;;0.50;;
60896;SDS011;46749;32.932;-117.130;2023-03-03T06:10:34;2.30;;;0.57;;
60896;SDS011;46749;32.932;-117.130;2023-03-03T06:13:00;1.35;;;0.50;;
60896;SDS011;46749;32.932;-117.130;2023-03-03T06:15:27;1.13;;;0.50;;
60896;SDS011;46749;32.932;-117.130;2023-03-03T06:17:53;2.72;;;0.93;;
60896;SDS011;46749;32.932;-117.130;2023-03-03T06:20:19;1.67;;;0.60;;
60896;SDS011;46749;32.932;-117.130;2023-03-03T06:22:45;1.95;;;0.68;;
60896;SDS011;46749;32.932;-117.130;2023-03-03T06:25:11;1.73;;;0.73;;
60896;SDS011;46749;32.932;-117.130;2023-03-03T06:27:38;1.98;;;0.80;;
60896;SDS011;46749;32.932;-117.130;2023-03-03T06:30:04;1.63;;;0.70;;
60896;SDS011;46749;32.932;-117.130;2023-03-03T06:32:31;1.30;;;0.55;;
60896;SDS011;46749;32.932;-117.130;2023-03-03T06:34:57;0.90;;;0.60;;
60896;SDS011;46749;32.932;-117.130;2023-03-03T06:37:23;3.00;;;0.80;;
60896;SDS011;46749;32.932;-117.130;2023-03-03T06:39:50;1.65;;;1.02;;
60896;SDS011;46749;32.932;-117.130;2023-03-03T06:42:17;2.22;;;0.90;;
60896;SDS011;46749;32.932;-117.130;2023-03-03T06:44:44;2.33;;;0.70;;
60896;SDS011;46749;32.932;-117.130;2023-03-03T06:47:10;2.20;;;0.80;;
60896;SDS011;46749;32.932;-117.130;2023-03-03T06:49:36;1.20;;;0.85;;
60896;SDS011;46749;32.932;-117.130;2023-03-03T06:52:09;1.52;;;0.80;;
60896;SDS011;46749;32.932;-117.130;2023-03-03T06:54:38;1.65;;;0.77;;
60896;SDS011;46749;32.932;-117.130;2023-03-03T06:57:14;2.65;;;0.73;;
60896;SDS011;46749;32.932;-117.130;2023-03-03T06:59:52;1.48;;;0.60;;
60896;SDS011;46749;32.932;-117.130;2023-03-03T07:02:22;2.70;;;0.80;;
60896;SDS011;46749;32.932;-117.130;2023-03-03T07:04:49;2.28;;;0.60;;
60896;SDS011;46749;32.932;-117.130;2023-03-03T07:07:16;2.03;;;0.77;;
60896;SDS011;46749;32.932;-117.130;2023-03-03T07:09:44;2.15;;;0.70;;
60896;SDS011;46749;32.932;-117.130;2023-03-03T07:12:22;2.40;;;0.63;;
60896;SDS011;46749;32.932;-117.130;2023-03-03T07:14:51;1.80;;;0.77;;
60896;SDS011;46749;32.932;-117.130;2023-03-03T07:17:30;4.10;;;0.90;;
60896;SDS011;46749;32.932;-117.130;2023-03-03T07:19:57;1.85;;;0.70;;
60896;SDS011;46749;32.932;-117.130;2023-03-03T07:22:26;2.35;;;0.80;;
60896;SDS011;46749;32.932;-117.130;2023-03-03T07:24:56;1.73;;;0.60;;
60896;SDS011;46749;32.932;-117.130;2023-03-03T07:27:27;2.15;;;0.93;;
60896;SDS011;46749;32.932;-117.130;2023-03-03T07:29:55;2.22;;;0.80;;
60896;SDS011;46749;32.932;-117.130;2023-03-03T07:32:39;1.40;;;0.70;;
60896;SDS011;46749;32.932;-117.130;2023-03-03T07:35:28;1.55;;;0.88;;
60896;SDS011;46749;32.932;-117.130;2023-03-03T07:40:56;1.25;;;0.70;;
60896;SDS011;46749;32.932;-117.130;2023-03-03T07:43:33;1.77;;;0.75;;
60896;SDS011;46749;32.932;-117.130;2023-03-03T07:48:42;2.25;;;0.90;;
60896;SDS011;46749;32.932;-117.130;2023-03-03T07:51:13;3.67;;;1.00;;
60896;SDS011;46749;32.932;-117.130;2023-03-03T07:53:47;2.72;;;0.75;;
60896;SDS011;46749;32.932;-117.130;2023-03-03T07:56:27;3.45;;;0.90;;
60896;SDS011;46749;32.932;-117.130;2023-03-03T07:58:55;2.08;;;0.80;;
60896;SDS011;46749;32.932;-117.130;2023-03-03T08:04:39;1.48;;;1.02;;
60896;SDS011;46749;32.932;-117.130;2023-03-03T08:07:13;2.17;;;1.00;;
60896;SDS011;46749;32.932;-117.130;2023-03-03T08:09:46;1.63;;;0.90;;
60896;SDS011;46749;32.932;-117.130;2023-03-03T08:12:23;1.92;;;0.80;;
60896;SDS011;46749;32.932;-117.130;2023-03-03T08:15:21;2.22;;;0.88;;
60896;SDS011;46749;32.932;-117.130;2023-03-03T08:17:50;2.72;;;1.10;;
60896;SDS011;46749;32.932;-117.130;2023-03-03T08:22:54;1.05;;;0.70;;
60896;SDS011;46749;32.932;-117.130;2023-03-03T08:25:20;3.08;;;1.40;;
60896;SDS011;46749;32.932;-117.130;2023-03-03T08:27:46;1.90;;;0.90;;
60896;SDS011;46749;32.932;-117.130;2023-03-03T08:30:12;2.67;;;0.88;;
60896;SDS011;46749;32.932;-117.130;2023-03-03T08:32:39;2.22;;;0.95;;
60896;SDS011;46749;32.932;-117.130;2023-03-03T08:35:05;2.67;;;0.82;;
60896;SDS011;46749;32.932;-117.130;2023-03-03T08:37:32;2.88;;;1.10;;
60896;SDS011;46749;32.932;-117.130;2023-03-03T08:39:58;2.50;;;0.80;;
60896;SDS011;46749;32.932;-117.130;2023-03-03T08:42:24;1.83;;;0.80;;
60896;SDS011;46749;32.932;-117.130;2023-03-03T08:44:51;2.60;;;0.98;;
60896;SDS011;46749;32.932;-117.130;2023-03-03T08:47:17;2.65;;;1.00;;
60896;SDS011;46749;32.932;-117.130;2023-03-03T08:49:43;3.33;;;1.00;;
60896;SDS011;46749;32.932;-117.130;2023-03-03T08:52:09;1.33;;;0.70;;
60896;SDS011;46749;32.932;-117.130;2023-03-03T08:54:35;1.95;;;1.00;;
60896;SDS011;46749;32.932;-117.130;2023-03-03T08:57:02;1.48;;;0.82;;
60896;SDS011;46749;32.932;-117.130;2023-03-03T08:59:28;2.50;;;0.90;;
60896;SDS011;46749;32.932;-117.130;2023-03-03T09:01:54;3.38;;;0.85;;
60896;SDS011;46749;32.932;-117.130;2023-03-03T09:04:20;2.05;;;0.75;;
60896;SDS011;46749;32.932;-117.130;2023-03-03T09:06:47;1.88;;;0.88;;
60896;SDS011;46749;32.932;-117.130;2023-03-03T09:09:13;2.40;;;0.98;;
60896;SDS011;46749;32.932;-117.130;2023-03-03T09:11:39;1.88;;;0.73;;
60896;SDS011;46749;32.932;-117.130;2023-03-03T09:14:11;2.53;;;0.90;;
60896;SDS011;46749;32.932;-117.130;2023-03-03T09:16:51;2.38;;;0.90;;
60896;SDS011;46749;32.932;-117.130;2023-03-03T09:19:21;1.60;;;0.80;;
60896;SDS011;46749;32.932;-117.130;2023-03-03T09:21:53;2.83;;;1.20;;
60896;SDS011;46749;32.932;-117.130;2023-03-03T09:24:25;1.30;;;0.80;;
60896;SDS011;46749;32.932;-117.130;2023-03-03T09:26:52;2.10;;;0.70;;
60896;SDS011;46749;32.932;-117.130;2023-03-03T09:29:23;2.80;;;1.60;;
60896;SDS011;46749;32.932;-117.130;2023-03-03T09:31:54;1.98;;;0.82;;
60896;SDS011;46749;32.932;-117.130;2023-03-03T09:34:35;3.00;;;1.00;;
60896;SDS011;46749;32.932;-117.130;2023-03-03T09:40:17;2.05;;;0.85;;
60896;SDS011;46749;32.932;-117.130;2023-03-03T09:45:44;2.08;;;0.90;;
60896;SDS011;46749;32.932;-117.130;2023-03-03T09:48:35;1.50;;;0.80;;
60896;SDS011;46749;32.932;-117.130;2023-03-03T10:20:56;2.75;;;0.70;;
60896;SDS011;46749;32.932;-117.130;2023-03-03T10:26:16;2.42;;;0.70;;
60896;SDS011;46749;32.932;-117.130;2023-03-03T10:54:36;1.05;;;0.55;;
60896;SDS011;46749;32.932;-117.130;2023-03-03T11:00:06;2.47;;;0.55;;
60896;SDS011;46749;32.932;-117.130;2023-03-03T11:05:54;3.15;;;1.10;;
60896;SDS011;46749;32.932;-117.130;2023-03-03T11:08:42;1.05;;;0.55;;
60896;SDS011;46749;32.932;-117.130;2023-03-03T11:13:54;1.60;;;0.60;;
60896;SDS011;46749;32.932;-117.130;2023-03-03T11:16:32;2.30;;;0.80;;
60896;SDS011;46749;32.932;-117.130;2023-03-03T11:19:10;1.27;;;0.60;;
60896;SDS011;46749;32.932;-117.130;2023-03-03T11:21:44;2.28;;;0.60;;
60896;SDS011;46749;32.932;-117.130;2023-03-03T11:24:20;0.80;;;0.43;;
60896;SDS011;46749;32.932;-117.130;2023-03-03T11:27:04;2.13;;;0.50;;
60896;SDS011;46749;32.932;-117.130;2023-03-03T11:35:18;1.85;;;0.60;;
60896;SDS011;46749;32.932;-117.130;2023-03-03T11:38:33;1.52;;;0.63;;
60896;SDS011;46749;32.932;-117.130;2023-03-03T11:44:07;2.25;;;0.50;;
60896;SDS011;46749;32.932;-117.130;2023-03-03T11:46:48;2.08;;;0.60;;
60896;SDS011;46749;32.932;-117.130;2023-03-03T11:49:24;1.85;;;0.68;;
60896;SDS011;46749;32.932;-117.130;2023-03-03T11:54:59;2.45;;;0.70;;
60896;SDS011;46749;32.932;-117.130;2023-03-03T11:57:56;1.13;;;0.40;;
60896;SDS011;46749;32.932;-117.130;2023-03-03T12:00:51;0.90;;;0.40;;
60896;SDS011;46749;32.932;-117.130;2023-03-03T12:03:40;0.70;;;0.40;;
60896;SDS011;46749;32.932;-117.130;2023-03-03T12:16:58;1.52;;;0.60;;
60896;SDS011;46749;32.932;-117.130;2023-03-03T12:19:55;1.02;;;0.50;;
60896;SDS011;46749;32.932;-117.130;2023-03-03T12:22:41;1.05;;;0.50;;
60896;SDS011;46749;32.932;-117.130;2023-03-03T12:28:14;2.10;;;0.70;;
60896;SDS011;46749;32.932;-117.130;2023-03-03T12:37:05;1.05;;;0.50;;
60896;SDS011;46749;32.932;-117.130;2023-03-03T12:39:44;1.02;;;0.38;;
60896;SDS011;46749;32.932;-117.130;2023-03-03T12:45:22;0.65;;;0.40;;
60896;SDS011;46749;32.932;-117.130;2023-03-03T12:47:59;0.88;;;0.50;;
60896;SDS011;46749;32.932;-117.130;2023-03-03T12:56:04;1.50;;;0.50;;
60896;SDS011;46749;32.932;-117.130;2023-03-03T12:58:40;1.27;;;0.40;;
60896;SDS011;46749;32.932;-117.130;2023-03-03T13:06:41;1.05;;;0.50;;
60896;SDS011;46749;32.932;-117.130;2023-03-03T13:14:42;0.60;;;0.40;;
60896;SDS011;46749;32.932;-117.130;2023-03-03T13:20:02;1.05;;;0.50;;
60896;SDS011;46749;32.932;-117.130;2023-03-03T13:27:47;0.82;;;0.60;;
60896;SDS011;46749;32.932;-117.130;2023-03-03T13:30:21;1.25;;;0.43;;
60896;SDS011;46749;32.932;-117.130;2023-03-03T13:35:40;1.25;;;0.50;;
60896;SDS011;46749;32.932;-117.130;2023-03-03T13:38:19;0.55;;;0.30;;
60896;SDS011;46749;32.932;-117.130;2023-03-03T13:43:43;2.22;;;0.57;;
60896;SDS011;46749;32.932;-117.130;2023-03-03T13:46:41;1.00;;;0.40;;
60896;SDS011;46749;32.932;-117.130;2023-03-03T13:49:25;0.40;;;0.32;;
60896;SDS011;46749;32.932;-117.130;2023-03-03T13:52:19;0.57;;;0.40;;
60896;SDS011;46749;32.932;-117.130;2023-03-03T14:00:27;0.75;;;0.32;;
60896;SDS011;46749;32.932;-117.130;2023-03-03T14:06:18;2.05;;;0.60;;
60896;SDS011;46749;32.932;-117.130;2023-03-03T14:11:25;0.40;;;0.30;;
60896;SDS011;46749;32.932;-117.130;2023-03-03T14:16:51;1.70;;;0.50;;
60896;SDS011;46749;32.932;-117.130;2023-03-03T14:19:57;0.30;;;0.30;;
60896;SDS011;46749;32.932;-117.130;2023-03-03T14:25:52;1.52;;;0.50;;
60896;SDS011;46749;32.932;-117.130;2023-03-03T14:28:21;1.10;;;0.43;;
60896;SDS011;46749;32.932;-117.130;2023-03-03T14:30:48;0.73;;;0.50;;
60896;SDS011;46749;32.932;-117.130;2023-03-03T14:33:20;1.08;;;0.50;;
60896;SDS011;46749;32.932;-117.130;2023-03-03T14:43:37;4.63;;;0.50;;
60896;SDS011;46749;32.932;-117.130;2023-03-03T14:49:05;1.25;;;0.38;;
60896;SDS011;46749;32.932;-117.130;2023-03-03T14:51:42;0.43;;;0.30;;
60896;SDS011;46749;32.932;-117.130;2023-03-03T14:54:15;0.70;;;0.40;;
60896;SDS011;46749;32.932;-117.130;2023-03-03T14:57:05;0.50;;;0.40;;
60896;SDS011;46749;32.932;-117.130;2023-03-03T14:59:37;0.95;;;0.40;;
60896;SDS011;46749;32.932;-117.130;2023-03-03T15:04:43;3.50;;;0.50;;
60896;SDS011;46749;32.932;-117.130;2023-03-03T15:09:59;2.42;;;0.40;;
60896;SDS011;46749;32.932;-117.130;2023-03-03T15:15:04;2.28;;;0.60;;
60896;SDS011;46749;32.932;-117.130;2023-03-03T15:17:43;1.33;;;0.43;;
60896;SDS011;46749;32.932;-117.130;2023-03-03T15:20:38;3.70;;;0.45;;
60896;SDS011;46749;32.932;-117.130;2023-03-03T15:28:36;1.30;;;0.47;;
60896;SDS011;46749;32.932;-117.130;2023-03-03T15:37:23;0.50;;;0.30;;
60896;SDS011;46749;32.932;-117.130;2023-03-03T15:42:52;0.30;;;0.30;;
60896;SDS011;46749;32.932;-117.130;2023-03-03T15:46:13;0.38;;;0.22;;
60896;SDS011;46749;32.932;-117.130;2023-03-03T15:56:41;1.30;;;0.40;;
60896;SDS011;46749;32.932;-117.130;2023-03-03T15:59:33;0.93;;;0.60;;
60896;SDS011;46749;32.932;-117.130;2023-03-03T16:02:19;0.63;;;0.30;;
60896;SDS011;46749;32.932;-117.130;2023-03-03T16:04:58;1.15;;;0.50;;
60896;SDS011;46749;32.932;-117.130;2023-03-03T16:29:10;1.20;;;0.40;;
60896;SDS011;46749;32.932;-117.130;2023-03-03T16:32:31;0.70;;;0.30;;
60896;SDS011;46749;32.932;-117.130;2023-03-03T16:35:24;1.33;;;0.50;;
60896;SDS011;46749;32.932;-117.130;2023-03-03T16:37:57;2.33;;;0.47;;
60896;SDS011;46749;32.932;-117.130;2023-03-03T16:40:30;1.70;;;0.40;;
60896;SDS011;46749;32.932;-117.130;2023-03-03T16:43:17;0.63;;;0.40;;
60896;SDS011;46749;32.932;-117.130;2023-03-03T17:08:02;1.77;;;0.43;;
60896;SDS011;46749;32.932;-117.130;2023-03-03T17:10:54;0.60;;;0.30;;
60896;SDS011;46749;32.932;-117.130;2023-03-03T17:22:00;0.40;;;0.30;;
60896;SDS011;46749;32.932;-117.130;2023-03-03T17:27:15;1.02;;;0.40;;
60896;SDS011;46749;32.932;-117.130;2023-03-03T17:30:01;1.52;;;0.40;;
60896;SDS011;46749;32.932;-117.130;2023-03-03T17:38:05;0.73;;;0.30;;
60896;SDS011;46749;32.932;-117.130;2023-03-03T17:44:05;1.00;;;0.38;;
60896;SDS011;46749;32.932;-117.130;2023-03-03T17:46:46;1.50;;;0.63;;
60896;SDS011;46749;32.932;-117.130;2023-03-03T17:49:33;0.82;;;0.47;;
60896;SDS011;46749;32.932;-117.130;2023-03-03T17:52:30;1.25;;;0.47;;
60896;SDS011;46749;32.932;-117.130;2023-03-03T17:55:42;0.82;;;0.38;;
60896;SDS011;46749;32.932;-117.130;2023-03-03T18:06:24;0.60;;;0.30;;
60896;SDS011;46749;32.932;-117.130;2023-03-03T18:09:20;0.30;;;0.30;;
60896;SDS011;46749;32.932;-117.130;2023-03-03T18:19:50;0.90;;;0.40;;
60896;SDS011;46749;32.932;-117.130;2023-03-03T18:24:58;0.30;;;0.30;;
60896;SDS011;46749;32.932;-117.130;2023-03-03T18:27:30;0.50;;;0.30;;
60896;SDS011;46749;32.932;-117.130;2023-03-03T18:35:29;0.52;;;0.20;;
60896;SDS011;46749;32.932;-117.130;2023-03-03T18:37:56;0.80;;;0.30;;
60896;SDS011;46749;32.932;-117.130;2023-03-03T18:40:27;1.27;;;0.35;;
60896;SDS011;46749;32.932;-117.130;2023-03-03T18:42:53;0.70;;;0.43;;
60896;SDS011;46749;32.932;-117.130;2023-03-03T18:50:38;0.20;;;0.20;;
60896;SDS011;46749;32.932;-117.130;2023-03-03T18:53:11;0.30;;;0.30;;
60896;SDS011;46749;32.932;-117.130;2023-03-03T18:55:40;0.47;;;0.30;;
60896;SDS011;46749;32.932;-117.130;2023-03-03T19:00:49;1.08;;;0.40;;
60896;SDS011;46749;32.932;-117.130;2023-03-03T19:03:22;0.32;;;0.30;;
60896;SDS011;46749;32.932;-117.130;2023-03-03T19:06:09;0.73;;;0.30;;
60896;SDS011;46749;32.932;-117.130;2023-03-03T19:08:52;0.68;;;0.40;;
60896;SDS011;46749;32.932;-117.130;2023-03-03T19:16:41;1.38;;;0.40;;
60896;SDS011;46749;32.932;-117.130;2023-03-03T19:19:10;0.50;;;0.30;;
60896;SDS011;46749;32.932;-117.130;2023-03-03T19:21:37;0.75;;;0.20;;
60896;SDS011;46749;32.932;-117.130;2023-03-03T19:24:08;0.70;;;0.30;;
60896;SDS011;46749;32.932;-117.130;2023-03-03T19:29:56;0.50;;;0.30;;
60896;SDS011;46749;32.932;-117.130;2023-03-03T19:38:31;0.80;;;0.30;;
60896;SDS011;46749;32.932;-117.130;2023-03-03T19:46:49;0.15;;;0.15;;
60896;SDS011;46749;32.932;-117.130;2023-03-03T20:07:06;1.02;;;0.30;;
60896;SDS011;46749;32.932;-117.130;2023-03-03T20:21:33;0.45;;;0.22;;
60896;SDS011;46749;32.932;-117.130;2023-03-03T20:26:48;1.02;;;0.30;;
60896;SDS011;46749;32.932;-117.130;2023-03-03T20:32:53;0.95;;;0.30;;
60896;SDS011;46749;32.932;-117.130;2023-03-03T20:41:29;0.20;;;0.20;;
60896;SDS011;46749;32.932;-117.130;2023-03-03T20:50:01;0.65;;;0.20;;
60896;SDS011;46749;32.932;-117.130;2023-03-03T20:52:43;0.95;;;0.38;;
60896;SDS011;46749;32.932;-117.130;2023-03-03T20:55:33;1.42;;;0.30;;
60896;SDS011;46749;32.932;-117.130;2023-03-03T21:03:44;0.50;;;0.30;;
60896;SDS011;46749;32.932;-117.130;2023-03-03T21:06:17;0.55;;;0.30;;
60896;SDS011;46749;32.932;-117.130;2023-03-03T21:08:54;0.50;;;0.32;;